sensor_id;sensor_type;location;lat;lon;timestamp;temperature;humidity
26954;DHT22;14508;50.924;11.600;2023-04-03T00:00:37;3.60;99.90
26954;DHT22;14508;50.924;11.600;2023-04-03T00:03:06;3.60;99.90
26954;DHT22;14508;50.924;11.600;2023-04-03T00:05:34;3.60;99.90
26954;DHT22;14508;50.924;11.600;2023-04-03T00:08:02;3.60;99.90
26954;DHT22;14508;50.924;11.600;2023-04-03T00:10:31;3.50;99.90
26954;DHT22;14508;50.924;11.600;2023-04-03T00:12:59;3.50;99.90
26954;DHT22;14508;50.924;11.600;2023-04-03T00:15:27;3.50;99.90
26954;DHT22;14508;50.924;11.600;2023-04-03T00:17:55;3.50;99.90
26954;DHT22;14508;50.924;11.600;2023-04-03T00:20:25;3.40;99.90
26954;DHT22;14508;50.924;11.600;2023-04-03T00:22:54;3.30;99.90
26954;DHT22;14508;50.924;11.600;2023-04-03T00:25:22;3.20;99.90
26954;DHT22;14508;50.924;11.600;2023-04-03T00:27:50;3.10;99.90
26954;DHT22;14508;50.924;11.600;2023-04-03T00:30:19;3.00;99.90
26954;DHT22;14508;50.924;11.600;2023-04-03T00:32:48;3.00;99.90
26954;DHT22;14508;50.924;11.600;2023-04-03T00:35:17;2.90;99.90
26954;DHT22;14508;50.924;11.600;2023-04-03T00:37:46;2.90;99.90
26954;DHT22;14508;50.924;11.600;2023-04-03T00:40:15;2.90;99.90
26954;DHT22;14508;50.924;11.600;2023-04-03T00:42:45;2.90;99.90
26954;DHT22;14508;50.924;11.600;2023-04-03T00:45:28;2.90;99.90
26954;DHT22;14508;50.924;11.600;2023-04-03T00:47:57;2.90;99.90
26954;DHT22;14508;50.924;11.600;2023-04-03T00:50:26;2.90;99.90
26954;DHT22;14508;50.924;11.600;2023-04-03T00:52:56;2.80;99.90
26954;DHT22;14508;50.924;11.600;2023-04-03T00:55:25;2.80;99.90
26954;DHT22;14508;50.924;11.600;2023-04-03T00:57:53;2.80;99.90
26954;DHT22;14508;50.924;11.600;2023-04-03T01:00:23;2.80;99.90
26954;DHT22;14508;50.924;11.600;2023-04-03T01:02:51;2.80;99.90
26954;DHT22;14508;50.924;11.600;2023-04-03T01:05:21;2.70;99.90
26954;DHT22;14508;50.924;11.600;2023-04-03T01:07:49;2.70;99.90
26954;DHT22;14508;50.924;11.600;2023-04-03T01:10:20;2.80;99.90
26954;DHT22;14508;50.924;11.600;2023-04-03T01:12:49;2.70;99.90
26954;DHT22;14508;50.924;11.600;2023-04-03T01:15:19;2.70;99.90
26954;DHT22;14508;50.924;11.600;2023-04-03T01:17:49;2.70;99.90
26954;DHT22;14508;50.924;11.600;2023-04-03T01:20:50;2.70;99.90
26954;DHT22;14508;50.924;11.600;2023-04-03T01:23:37;2.70;99.90
26954;DHT22;14508;50.924;11.600;2023-04-03T01:26:08;2.70;99.90
26954;DHT22;14508;50.924;11.600;2023-04-03T01:28:38;2.70;99.90
26954;DHT22;14508;50.924;11.600;2023-04-03T01:31:13;2.70;99.90
26954;DHT22;14508;50.924;11.600;2023-04-03T01:33:46;2.70;99.90
26954;DHT22;14508;50.924;11.600;2023-04-03T01:36:16;2.70;99.90
26954;DHT22;14508;50.924;11.600;2023-04-03T01:38:44;2.60;99.90
26954;DHT22;14508;50.924;11.600;2023-04-03T01:41:12;2.60;99.90
26954;DHT22;14508;50.924;11.600;2023-04-03T01:43:40;2.60;99.90
26954;DHT22;14508;50.924;11.600;2023-04-03T01:46:08;2.60;99.90
26954;DHT22;14508;50.924;11.600;2023-04-03T01:48:37;2.60;99.90
26954;DHT22;14508;50.924;11.600;2023-04-03T01:51:06;2.60;99.90
26954;DHT22;14508;50.924;11.600;2023-04-03T01:53:34;2.50;99.90
26954;DHT22;14508;50.924;11.600;2023-04-03T01:56:03;2.50;99.90
26954;DHT22;14508;50.924;11.600;2023-04-03T01:58:31;2.50;99.90
26954;DHT22;14508;50.924;11.600;2023-04-03T02:00:59;2.40;99.90
26954;DHT22;14508;50.924;11.600;2023-04-03T02:03:28;2.40;99.90
26954;DHT22;14508;50.924;11.600;2023-04-03T02:05:57;2.40;99.90
26954;DHT22;14508;50.924;11.600;2023-04-03T02:08:27;2.40;99.90
26954;DHT22;14508;50.924;11.600;2023-04-03T02:10:55;2.40;99.90
26954;DHT22;14508;50.924;11.600;2023-04-03T02:13:23;2.40;99.90
26954;DHT22;14508;50.924;11.600;2023-04-03T02:15:51;2.40;99.90
26954;DHT22;14508;50.924;11.600;2023-04-03T02:18:18;2.40;99.90
26954;DHT22;14508;50.924;11.600;2023-04-03T02:20:46;2.40;99.90
26954;DHT22;14508;50.924;11.600;2023-04-03T02:23:14;2.40;99.90
26954;DHT22;14508;50.924;11.600;2023-04-03T02:25:44;2.40;99.90
26954;DHT22;14508;50.924;11.600;2023-04-03T02:28:12;2.30;99.90
26954;DHT22;14508;50.924;11.600;2023-04-03T02:30:40;2.40;99.90
26954;DHT22;14508;50.924;11.600;2023-04-03T02:33:08;2.30;99.90
26954;DHT22;14508;50.924;11.600;2023-04-03T02:35:39;2.30;99.90
26954;DHT22;14508;50.924;11.600;2023-04-03T02:38:07;2.20;99.90
26954;DHT22;14508;50.924;11.600;2023-04-03T02:40:35;2.20;99.90
26954;DHT22;14508;50.924;11.600;2023-04-03T02:43:04;2.10;99.90
26954;DHT22;14508;50.924;11.600;2023-04-03T02:45:33;2.10;99.90
26954;DHT22;14508;50.924;11.600;2023-04-03T02:48:01;2.00;99.90
26954;DHT22;14508;50.924;11.600;2023-04-03T02:50:29;1.90;99.90
26954;DHT22;14508;50.924;11.600;2023-04-03T02:52:57;1.90;99.90
26954;DHT22;14508;50.924;11.600;2023-04-03T02:55:25;1.80;99.90
26954;DHT22;14508;50.924;11.600;2023-04-03T02:57:56;1.70;99.90
26954;DHT22;14508;50.924;11.600;2023-04-03T03:00:25;1.70;99.90
26954;DHT22;14508;50.924;11.600;2023-04-03T03:02:53;1.60;99.90
26954;DHT22;14508;50.924;11.600;2023-04-03T03:05:21;1.60;99.90
26954;DHT22;14508;50.924;11.600;2023-04-03T03:07:49;1.50;99.90
26954;DHT22;14508;50.924;11.600;2023-04-03T03:10:17;1.50;99.90
26954;DHT22;14508;50.924;11.600;2023-04-03T03:12:45;1.40;99.90
26954;DHT22;14508;50.924;11.600;2023-04-03T03:15:13;1.40;99.90
26954;DHT22;14508;50.924;11.600;2023-04-03T03:17:43;1.30;99.90
26954;DHT22;14508;50.924;11.600;2023-04-03T03:20:12;1.30;99.90
26954;DHT22;14508;50.924;11.600;2023-04-03T03:22:41;1.20;99.90
26954;DHT22;14508;50.924;11.600;2023-04-03T03:25:09;1.20;99.90
26954;DHT22;14508;50.924;11.600;2023-04-03T03:27:37;1.10;99.90
26954;DHT22;14508;50.924;11.600;2023-04-03T03:30:07;1.10;99.90
26954;DHT22;14508;50.924;11.600;2023-04-03T03:32:35;1.10;99.90
26954;DHT22;14508;50.924;11.600;2023-04-03T03:35:05;1.10;99.90
26954;DHT22;14508;50.924;11.600;2023-04-03T03:37:32;1.10;99.90
26954;DHT22;14508;50.924;11.600;2023-04-03T03:40:01;1.10;99.90
26954;DHT22;14508;50.924;11.600;2023-04-03T03:42:30;1.10;99.90
26954;DHT22;14508;50.924;11.600;2023-04-03T03:44:58;1.00;99.90
26954;DHT22;14508;50.924;11.600;2023-04-03T03:47:26;1.00;99.90
26954;DHT22;14508;50.924;11.600;2023-04-03T03:49:54;1.00;99.90
26954;DHT22;14508;50.924;11.600;2023-04-03T03:52:23;1.00;99.90
26954;DHT22;14508;50.924;11.600;2023-04-03T03:54:51;0.90;99.90
26954;DHT22;14508;50.924;11.600;2023-04-03T03:57:19;0.90;99.90
26954;DHT22;14508;50.924;11.600;2023-04-03T03:59:47;0.90;99.90
26954;DHT22;14508;50.924;11.600;2023-04-03T04:02:17;0.80;99.90
26954;DHT22;14508;50.924;11.600;2023-04-03T04:04:45;0.80;99.90
26954;DHT22;14508;50.924;11.600;2023-04-03T04:07:13;0.80;99.90
26954;DHT22;14508;50.924;11.600;2023-04-03T04:09:43;0.80;99.90
26954;DHT22;14508;50.924;11.600;2023-04-03T04:12:11;0.80;99.90
26954;DHT22;14508;50.924;11.600;2023-04-03T04:14:39;0.70;99.90
26954;DHT22;14508;50.924;11.600;2023-04-03T04:17:08;0.60;99.90
26954;DHT22;14508;50.924;11.600;2023-04-03T04:19:36;0.60;99.90
26954;DHT22;14508;50.924;11.600;2023-04-03T04:22:04;0.60;99.90
26954;DHT22;14508;50.924;11.600;2023-04-03T04:24:33;0.60;99.90
26954;DHT22;14508;50.924;11.600;2023-04-03T04:27:05;0.60;99.90
26954;DHT22;14508;50.924;11.600;2023-04-03T04:29:33;0.50;99.90
26954;DHT22;14508;50.924;11.600;2023-04-03T04:32:05;0.50;99.90
26954;DHT22;14508;50.924;11.600;2023-04-03T04:34:33;0.50;99.90
26954;DHT22;14508;50.924;11.600;2023-04-03T04:37:02;0.50;99.90
26954;DHT22;14508;50.924;11.600;2023-04-03T04:39:30;0.50;99.90
26954;DHT22;14508;50.924;11.600;2023-04-03T04:41:58;0.50;99.90
26954;DHT22;14508;50.924;11.600;2023-04-03T04:44:31;0.50;99.90
26954;DHT22;14508;50.924;11.600;2023-04-03T04:46:59;0.50;99.90
26954;DHT22;14508;50.924;11.600;2023-04-03T04:49:27;0.60;99.90
26954;DHT22;14508;50.924;11.600;2023-04-03T04:51:55;0.60;99.90
26954;DHT22;14508;50.924;11.600;2023-04-03T04:54:27;0.60;99.90
26954;DHT22;14508;50.924;11.600;2023-04-03T04:56:56;0.70;99.90
26954;DHT22;14508;50.924;11.600;2023-04-03T04:59:26;0.70;99.90
26954;DHT22;14508;50.924;11.600;2023-04-03T05:01:58;0.70;99.90
26954;DHT22;14508;50.924;11.600;2023-04-03T05:04:26;0.80;99.90
26954;DHT22;14508;50.924;11.600;2023-04-03T05:07:01;0.80;99.90
26954;DHT22;14508;50.924;11.600;2023-04-03T05:09:32;0.80;99.90
26954;DHT22;14508;50.924;11.600;2023-04-03T05:12:00;0.90;99.90
26954;DHT22;14508;50.924;11.600;2023-04-03T05:14:36;0.90;99.90
26954;DHT22;14508;50.924;11.600;2023-04-03T05:17:08;1.00;99.90
26954;DHT22;14508;50.924;11.600;2023-04-03T05:19:39;1.10;99.90
26954;DHT22;14508;50.924;11.600;2023-04-03T05:22:09;1.20;99.90
26954;DHT22;14508;50.924;11.600;2023-04-03T05:24:36;1.20;99.90
26954;DHT22;14508;50.924;11.600;2023-04-03T05:27:05;1.20;99.90
26954;DHT22;14508;50.924;11.600;2023-04-03T05:29:37;1.20;99.90
26954;DHT22;14508;50.924;11.600;2023-04-03T05:32:05;1.30;99.90
26954;DHT22;14508;50.924;11.600;2023-04-03T05:34:35;1.40;99.90
26954;DHT22;14508;50.924;11.600;2023-04-03T05:37:03;1.40;99.90
26954;DHT22;14508;50.924;11.600;2023-04-03T05:39:32;1.40;99.90
26954;DHT22;14508;50.924;11.600;2023-04-03T05:42:02;1.40;99.90
26954;DHT22;14508;50.924;11.600;2023-04-03T05:44:29;1.40;99.90
26954;DHT22;14508;50.924;11.600;2023-04-03T05:46:57;1.40;99.90
26954;DHT22;14508;50.924;11.600;2023-04-03T05:49:25;1.30;99.90
26954;DHT22;14508;50.924;11.600;2023-04-03T05:51:55;1.40;99.90
26954;DHT22;14508;50.924;11.600;2023-04-03T05:54:28;1.40;99.90
26954;DHT22;14508;50.924;11.600;2023-04-03T05:57:10;1.50;99.90
26954;DHT22;14508;50.924;11.600;2023-04-03T05:59:40;1.50;99.90
26954;DHT22;14508;50.924;11.600;2023-04-03T06:02:10;1.60;99.90
26954;DHT22;14508;50.924;11.600;2023-04-03T06:04:38;1.70;99.90
26954;DHT22;14508;50.924;11.600;2023-04-03T06:07:10;1.60;99.90
26954;DHT22;14508;50.924;11.600;2023-04-03T06:09:39;1.70;99.90
26954;DHT22;14508;50.924;11.600;2023-04-03T06:12:07;1.70;99.90
26954;DHT22;14508;50.924;11.600;2023-04-03T06:14:36;1.70;99.90
26954;DHT22;14508;50.924;11.600;2023-04-03T06:17:04;1.80;99.90
26954;DHT22;14508;50.924;11.600;2023-04-03T06:19:33;1.80;99.90
26954;DHT22;14508;50.924;11.600;2023-04-03T06:22:00;1.90;99.90
26954;DHT22;14508;50.924;11.600;2023-04-03T06:24:31;2.00;99.90
26954;DHT22;14508;50.924;11.600;2023-04-03T06:26:59;1.90;99.90
26954;DHT22;14508;50.924;11.600;2023-04-03T06:29:27;2.00;99.90
26954;DHT22;14508;50.924;11.600;2023-04-03T06:31:55;2.00;99.90
26954;DHT22;14508;50.924;11.600;2023-04-03T06:34:22;2.20;99.90
26954;DHT22;14508;50.924;11.600;2023-04-03T06:36:51;2.30;99.90
26954;DHT22;14508;50.924;11.600;2023-04-03T06:39:21;2.40;99.90
26954;DHT22;14508;50.924;11.600;2023-04-03T06:41:50;2.50;99.90
26954;DHT22;14508;50.924;11.600;2023-04-03T06:44:26;2.60;99.90
26954;DHT22;14508;50.924;11.600;2023-04-03T06:46:54;2.70;99.90
26954;DHT22;14508;50.924;11.600;2023-04-03T06:49:22;2.70;99.90
26954;DHT22;14508;50.924;11.600;2023-04-03T06:51:50;2.80;99.90
26954;DHT22;14508;50.924;11.600;2023-04-03T06:54:18;2.90;99.90
26954;DHT22;14508;50.924;11.600;2023-04-03T06:56:45;3.00;99.90
26954;DHT22;14508;50.924;11.600;2023-04-03T06:59:15;3.10;99.90
26954;DHT22;14508;50.924;11.600;2023-04-03T07:01:43;3.20;99.90
26954;DHT22;14508;50.924;11.600;2023-04-03T07:04:11;3.40;99.90
26954;DHT22;14508;50.924;11.600;2023-04-03T07:06:39;3.50;99.90
26954;DHT22;14508;50.924;11.600;2023-04-03T07:09:08;3.50;99.90
26954;DHT22;14508;50.924;11.600;2023-04-03T07:11:37;3.50;99.90
26954;DHT22;14508;50.924;11.600;2023-04-03T07:14:05;3.60;99.90
26954;DHT22;14508;50.924;11.600;2023-04-03T07:16:35;3.60;99.90
26954;DHT22;14508;50.924;11.600;2023-04-03T07:19:07;3.70;99.90
26954;DHT22;14508;50.924;11.600;2023-04-03T07:21:36;3.60;98.20
26954;DHT22;14508;50.924;11.600;2023-04-03T07:24:04;3.50;97.50
26954;DHT22;14508;50.924;11.600;2023-04-03T07:26:35;3.50;97.70
26954;DHT22;14508;50.924;11.600;2023-04-03T07:29:03;3.50;96.90
26954;DHT22;14508;50.924;11.600;2023-04-03T07:31:31;3.50;96.60
26954;DHT22;14508;50.924;11.600;2023-04-03T07:34:01;3.60;96.60
26954;DHT22;14508;50.924;11.600;2023-04-03T07:36:29;3.60;95.00
26954;DHT22;14508;50.924;11.600;2023-04-03T07:38:59;3.60;96.40
26954;DHT22;14508;50.924;11.600;2023-04-03T07:41:27;3.70;97.40
26954;DHT22;14508;50.924;11.600;2023-04-03T07:43:55;3.80;98.10
26954;DHT22;14508;50.924;11.600;2023-04-03T07:46:24;4.00;97.90
26954;DHT22;14508;50.924;11.600;2023-04-03T07:48:52;4.20;96.50
26954;DHT22;14508;50.924;11.600;2023-04-03T07:51:24;4.30;93.90
26954;DHT22;14508;50.924;11.600;2023-04-03T07:53:52;4.40;93.70
26954;DHT22;14508;50.924;11.600;2023-04-03T07:56:20;4.50;92.50
26954;DHT22;14508;50.924;11.600;2023-04-03T07:58:49;4.50;91.60
26954;DHT22;14508;50.924;11.600;2023-04-03T08:01:17;4.60;91.20
26954;DHT22;14508;50.924;11.600;2023-04-03T08:03:44;4.70;88.90
26954;DHT22;14508;50.924;11.600;2023-04-03T08:06:13;4.70;90.00
26954;DHT22;14508;50.924;11.600;2023-04-03T08:08:45;4.90;90.10
26954;DHT22;14508;50.924;11.600;2023-04-03T08:11:13;5.10;87.40
26954;DHT22;14508;50.924;11.600;2023-04-03T08:13:41;5.20;82.30
26954;DHT22;14508;50.924;11.600;2023-04-03T08:16:12;5.20;81.50
26954;DHT22;14508;50.924;11.600;2023-04-03T08:18:40;5.20;80.90
26954;DHT22;14508;50.924;11.600;2023-04-03T08:21:08;5.20;77.70
26954;DHT22;14508;50.924;11.600;2023-04-03T08:23:37;5.20;76.10
26954;DHT22;14508;50.924;11.600;2023-04-03T08:26:08;5.30;74.30
26954;DHT22;14508;50.924;11.600;2023-04-03T08:28:36;5.40;73.60
26954;DHT22;14508;50.924;11.600;2023-04-03T08:31:05;5.60;72.20
26954;DHT22;14508;50.924;11.600;2023-04-03T08:33:34;5.60;66.80
26954;DHT22;14508;50.924;11.600;2023-04-03T08:36:04;5.60;63.70
26954;DHT22;14508;50.924;11.600;2023-04-03T08:38:32;5.60;64.40
26954;DHT22;14508;50.924;11.600;2023-04-03T08:41:11;5.60;62.00
26954;DHT22;14508;50.924;11.600;2023-04-03T08:43:53;5.60;62.20
26954;DHT22;14508;50.924;11.600;2023-04-03T08:46:26;5.70;62.20
26954;DHT22;14508;50.924;11.600;2023-04-03T08:49:00;5.90;62.50
26954;DHT22;14508;50.924;11.600;2023-04-03T08:51:28;6.00;60.80
26954;DHT22;14508;50.924;11.600;2023-04-03T08:54:01;6.20;61.90
26954;DHT22;14508;50.924;11.600;2023-04-03T08:56:33;6.40;61.80
26954;DHT22;14508;50.924;11.600;2023-04-03T08:59:06;6.50;59.80
26954;DHT22;14508;50.924;11.600;2023-04-03T09:01:39;6.50;58.00
26954;DHT22;14508;50.924;11.600;2023-04-03T09:04:11;6.50;57.80
26954;DHT22;14508;50.924;11.600;2023-04-03T09:06:40;6.40;55.90
26954;DHT22;14508;50.924;11.600;2023-04-03T09:09:14;6.30;56.40
26954;DHT22;14508;50.924;11.600;2023-04-03T09:11:54;6.30;57.10
26954;DHT22;14508;50.924;11.600;2023-04-03T09:14:33;6.40;56.90
26954;DHT22;14508;50.924;11.600;2023-04-03T09:17:08;6.50;55.80
26954;DHT22;14508;50.924;11.600;2023-04-03T09:19:41;6.60;54.30
26954;DHT22;14508;50.924;11.600;2023-04-03T09:22:16;6.50;53.00
26954;DHT22;14508;50.924;11.600;2023-04-03T09:24:47;6.40;53.30
26954;DHT22;14508;50.924;11.600;2023-04-03T09:27:19;6.30;53.00
26954;DHT22;14508;50.924;11.600;2023-04-03T09:29:47;6.20;53.90
26954;DHT22;14508;50.924;11.600;2023-04-03T09:32:21;6.00;53.40
26954;DHT22;14508;50.924;11.600;2023-04-03T09:34:50;5.90;54.50
26954;DHT22;14508;50.924;11.600;2023-04-03T09:37:41;5.80;55.40
26954;DHT22;14508;50.924;11.600;2023-04-03T09:40:32;5.60;54.20
26954;DHT22;14508;50.924;11.600;2023-04-03T09:43:25;6.00;55.40
26954;DHT22;14508;50.924;11.600;2023-04-03T09:45:54;6.30;55.00
26954;DHT22;14508;50.924;11.600;2023-04-03T09:48:24;6.40;55.20
26954;DHT22;14508;50.924;11.600;2023-04-03T09:50:56;6.50;54.90
26954;DHT22;14508;50.924;11.600;2023-04-03T09:53:34;6.50;52.90
26954;DHT22;14508;50.924;11.600;2023-04-03T09:56:09;6.40;53.10
26954;DHT22;14508;50.924;11.600;2023-04-03T09:58:48;6.20;52.80
26954;DHT22;14508;50.924;11.600;2023-04-03T10:01:27;6.30;52.40
26954;DHT22;14508;50.924;11.600;2023-04-03T10:04:07;6.30;52.40
26954;DHT22;14508;50.924;11.600;2023-04-03T10:06:37;6.40;52.60
26954;DHT22;14508;50.924;11.600;2023-04-03T10:09:21;6.40;51.20
26954;DHT22;14508;50.924;11.600;2023-04-03T10:12:01;6.50;50.10
26954;DHT22;14508;50.924;11.600;2023-04-03T10:14:33;6.70;49.80
26954;DHT22;14508;50.924;11.600;2023-04-03T10:17:14;6.80;48.60
26954;DHT22;14508;50.924;11.600;2023-04-03T10:19:47;6.90;48.40
26954;DHT22;14508;50.924;11.600;2023-04-03T10:22:20;7.30;48.90
26954;DHT22;14508;50.924;11.600;2023-04-03T10:25:01;7.80;49.60
26954;DHT22;14508;50.924;11.600;2023-04-03T10:27:39;8.20;48.80
26954;DHT22;14508;50.924;11.600;2023-04-03T10:30:26;8.30;48.60
26954;DHT22;14508;50.924;11.600;2023-04-03T10:33:08;8.30;48.90
26954;DHT22;14508;50.924;11.600;2023-04-03T10:35:44;8.20;49.80
26954;DHT22;14508;50.924;11.600;2023-04-03T10:38:20;8.00;49.90
26954;DHT22;14508;50.924;11.600;2023-04-03T10:40:54;7.80;49.50
26954;DHT22;14508;50.924;11.600;2023-04-03T10:43:32;7.60;48.70
26954;DHT22;14508;50.924;11.600;2023-04-03T10:46:06;7.30;49.20
26954;DHT22;14508;50.924;11.600;2023-04-03T10:48:46;7.10;49.60
26954;DHT22;14508;50.924;11.600;2023-04-03T10:51:24;7.00;48.80
26954;DHT22;14508;50.924;11.600;2023-04-03T10:53:57;7.20;49.40
26954;DHT22;14508;50.924;11.600;2023-04-03T10:56:31;7.70;49.70
26954;DHT22;14508;50.924;11.600;2023-04-03T10:59:07;8.20;48.80
26954;DHT22;14508;50.924;11.600;2023-04-03T11:01:44;8.40;48.80
26954;DHT22;14508;50.924;11.600;2023-04-03T11:04:15;8.30;49.00
26954;DHT22;14508;50.924;11.600;2023-04-03T11:06:47;8.20;49.40
26954;DHT22;14508;50.924;11.600;2023-04-03T11:09:22;8.20;49.20
26954;DHT22;14508;50.924;11.600;2023-04-03T11:11:54;8.00;49.80
26954;DHT22;14508;50.924;11.600;2023-04-03T11:14:27;7.90;50.20
26954;DHT22;14508;50.924;11.600;2023-04-03T11:17:05;7.90;50.80
26954;DHT22;14508;50.924;11.600;2023-04-03T11:19:40;7.90;50.60
26954;DHT22;14508;50.924;11.600;2023-04-03T11:22:13;7.90;51.00
26954;DHT22;14508;50.924;11.600;2023-04-03T11:24:57;8.20;51.20
26954;DHT22;14508;50.924;11.600;2023-04-03T11:27:27;8.50;50.60
26954;DHT22;14508;50.924;11.600;2023-04-03T11:30:00;8.70;50.10
26954;DHT22;14508;50.924;11.600;2023-04-03T11:35:26;8.50;48.60
26954;DHT22;14508;50.924;11.600;2023-04-03T11:37:55;8.40;49.60
26954;DHT22;14508;50.924;11.600;2023-04-03T11:40:25;8.30;49.70
26954;DHT22;14508;50.924;11.600;2023-04-03T11:43:02;8.10;49.80
26954;DHT22;14508;50.924;11.600;2023-04-03T11:45:36;7.80;49.50
26954;DHT22;14508;50.924;11.600;2023-04-03T11:48:41;7.60;49.90
26954;DHT22;14508;50.924;11.600;2023-04-03T11:50:59;7.50;49.00
26954;DHT22;14508;50.924;11.600;2023-04-03T11:53:33;7.50;48.70
26954;DHT22;14508;50.924;11.600;2023-04-03T11:56:31;7.40;48.00
26954;DHT22;14508;50.924;11.600;2023-04-03T11:59:22;7.70;48.10
26954;DHT22;14508;50.924;11.600;2023-04-03T12:01:50;8.00;47.30
26954;DHT22;14508;50.924;11.600;2023-04-03T12:04:22;8.30;47.30
26954;DHT22;14508;50.924;11.600;2023-04-03T12:10:15;8.30;46.80
26954;DHT22;14508;50.924;11.600;2023-04-03T12:12:59;8.40;47.10
26954;DHT22;14508;50.924;11.600;2023-04-03T12:15:51;8.40;45.90
26954;DHT22;14508;50.924;11.600;2023-04-03T12:18:55;8.50;45.30
26954;DHT22;14508;50.924;11.600;2023-04-03T12:24:34;8.60;46.40
26954;DHT22;14508;50.924;11.600;2023-04-03T12:27:08;8.60;46.90
26954;DHT22;14508;50.924;11.600;2023-04-03T12:29:40;8.50;45.90
26954;DHT22;14508;50.924;11.600;2023-04-03T12:32:18;8.20;44.70
26954;DHT22;14508;50.924;11.600;2023-04-03T12:34:59;7.90;44.70
26954;DHT22;14508;50.924;11.600;2023-04-03T12:37:43;7.60;45.80
26954;DHT22;14508;50.924;11.600;2023-04-03T12:40:21;7.30;46.40
26954;DHT22;14508;50.924;11.600;2023-04-03T12:43:08;7.30;47.00
26954;DHT22;14508;50.924;11.600;2023-04-03T12:45:41;7.70;47.00
26954;DHT22;14508;50.924;11.600;2023-04-03T12:48:17;8.10;46.10
26954;DHT22;14508;50.924;11.600;2023-04-03T12:50:46;8.50;46.30
26954;DHT22;14508;50.924;11.600;2023-04-03T12:53:18;8.30;46.20
26954;DHT22;14508;50.924;11.600;2023-04-03T12:55:47;8.30;46.90
26954;DHT22;14508;50.924;11.600;2023-04-03T12:58:22;8.30;47.60
26954;DHT22;14508;50.924;11.600;2023-04-03T13:01:00;8.20;47.70
26954;DHT22;14508;50.924;11.600;2023-04-03T13:03:29;8.20;47.80
26954;DHT22;14508;50.924;11.600;2023-04-03T13:05:59;8.00;47.60
26954;DHT22;14508;50.924;11.600;2023-04-03T13:08:30;7.90;46.80
26954;DHT22;14508;50.924;11.600;2023-04-03T13:11:00;7.80;46.10
26954;DHT22;14508;50.924;11.600;2023-04-03T13:13:29;7.70;45.80
26954;DHT22;14508;50.924;11.600;2023-04-03T13:15:58;8.00;46.30
26954;DHT22;14508;50.924;11.600;2023-04-03T13:18:32;8.40;46.80
26954;DHT22;14508;50.924;11.600;2023-04-03T13:21:04;8.80;46.60
26954;DHT22;14508;50.924;11.600;2023-04-03T13:23:36;8.80;45.00
26954;DHT22;14508;50.924;11.600;2023-04-03T13:26:06;8.80;45.50
26954;DHT22;14508;50.924;11.600;2023-04-03T13:28:34;8.70;45.30
26954;DHT22;14508;50.924;11.600;2023-04-03T13:31:07;8.80;45.70
26954;DHT22;14508;50.924;11.600;2023-04-03T13:33:37;8.80;45.60
26954;DHT22;14508;50.924;11.600;2023-04-03T13:36:08;8.50;45.90
26954;DHT22;14508;50.924;11.600;2023-04-03T13:38:40;8.60;46.60
26954;DHT22;14508;50.924;11.600;2023-04-03T13:41:24;8.70;47.20
26954;DHT22;14508;50.924;11.600;2023-04-03T13:43:52;8.50;47.40
26954;DHT22;14508;50.924;11.600;2023-04-03T13:46:36;8.60;47.80
26954;DHT22;14508;50.924;11.600;2023-04-03T13:49:17;8.50;47.20
26954;DHT22;14508;50.924;11.600;2023-04-03T13:51:46;8.60;46.30
26954;DHT22;14508;50.924;11.600;2023-04-03T13:54:39;8.60;46.00
26954;DHT22;14508;50.924;11.600;2023-04-03T13:57:13;8.50;46.20
26954;DHT22;14508;50.924;11.600;2023-04-03T13:59:42;8.50;45.90
26954;DHT22;14508;50.924;11.600;2023-04-03T14:02:16;8.20;46.00
26954;DHT22;14508;50.924;11.600;2023-04-03T14:04:51;8.20;46.10
26954;DHT22;14508;50.924;11.600;2023-04-03T14:07:19;8.20;46.30
26954;DHT22;14508;50.924;11.600;2023-04-03T14:09:49;8.40;46.70
26954;DHT22;14508;50.924;11.600;2023-04-03T14:12:24;8.30;45.90
26954;DHT22;14508;50.924;11.600;2023-04-03T14:14:58;8.10;46.70
26954;DHT22;14508;50.924;11.600;2023-04-03T14:17:28;8.00;47.30
26954;DHT22;14508;50.924;11.600;2023-04-03T14:19:56;7.90;47.60
26954;DHT22;14508;50.924;11.600;2023-04-03T14:22:27;7.80;47.80
26954;DHT22;14508;50.924;11.600;2023-04-03T14:24:57;7.80;48.30
26954;DHT22;14508;50.924;11.600;2023-04-03T14:27:27;7.80;48.40
26954;DHT22;14508;50.924;11.600;2023-04-03T14:29:56;7.90;48.00
26954;DHT22;14508;50.924;11.600;2023-04-03T14:32:25;7.70;47.10
26954;DHT22;14508;50.924;11.600;2023-04-03T14:34:54;7.70;47.20
26954;DHT22;14508;50.924;11.600;2023-04-03T14:37:25;7.90;46.50
26954;DHT22;14508;50.924;11.600;2023-04-03T14:39:58;8.00;46.20
26954;DHT22;14508;50.924;11.600;2023-04-03T14:42:28;8.10;46.60
26954;DHT22;14508;50.924;11.600;2023-04-03T14:44:57;8.10;46.40
26954;DHT22;14508;50.924;11.600;2023-04-03T14:47:28;7.90;46.90
26954;DHT22;14508;50.924;11.600;2023-04-03T14:49:59;7.80;47.60
26954;DHT22;14508;50.924;11.600;2023-04-03T14:52:29;7.70;47.50
26954;DHT22;14508;50.924;11.600;2023-04-03T14:55:00;7.70;47.70
26954;DHT22;14508;50.924;11.600;2023-04-03T14:57:29;7.70;47.80
26954;DHT22;14508;50.924;11.600;2023-04-03T14:59:57;7.80;47.90
26954;DHT22;14508;50.924;11.600;2023-04-03T15:02:28;7.70;47.80
26954;DHT22;14508;50.924;11.600;2023-04-03T15:04:58;7.60;47.70
26954;DHT22;14508;50.924;11.600;2023-04-03T15:07:29;7.50;48.20
26954;DHT22;14508;50.924;11.600;2023-04-03T15:09:58;7.50;48.20
26954;DHT22;14508;50.924;11.600;2023-04-03T15:12:27;7.40;48.10
26954;DHT22;14508;50.924;11.600;2023-04-03T15:14:55;7.40;48.20
26954;DHT22;14508;50.924;11.600;2023-04-03T15:17:29;7.50;48.50
26954;DHT22;14508;50.924;11.600;2023-04-03T15:19:58;7.60;48.30
26954;DHT22;14508;50.924;11.600;2023-04-03T15:22:26;7.80;48.30
26954;DHT22;14508;50.924;11.600;2023-04-03T15:24:54;7.80;47.10
26954;DHT22;14508;50.924;11.600;2023-04-03T15:27:23;7.80;47.40
26954;DHT22;14508;50.924;11.600;2023-04-03T15:29:51;7.70;47.70
26954;DHT22;14508;50.924;11.600;2023-04-03T15:32:19;7.50;47.60
26954;DHT22;14508;50.924;11.600;2023-04-03T15:34:47;7.20;48.00
26954;DHT22;14508;50.924;11.600;2023-04-03T15:37:15;7.10;49.10
26954;DHT22;14508;50.924;11.600;2023-04-03T15:39:43;7.00;49.50
26954;DHT22;14508;50.924;11.600;2023-04-03T15:42:11;7.00;49.50
26954;DHT22;14508;50.924;11.600;2023-04-03T15:44:40;7.00;49.40
26954;DHT22;14508;50.924;11.600;2023-04-03T15:47:08;7.10;49.40
26954;DHT22;14508;50.924;11.600;2023-04-03T15:49:36;7.20;49.60
26954;DHT22;14508;50.924;11.600;2023-04-03T15:52:05;7.20;48.80
26954;DHT22;14508;50.924;11.600;2023-04-03T15:54:33;7.30;48.10
26954;DHT22;14508;50.924;11.600;2023-04-03T15:57:01;7.40;48.20
26954;DHT22;14508;50.924;11.600;2023-04-03T15:59:29;7.40;47.80
26954;DHT22;14508;50.924;11.600;2023-04-03T16:02:01;7.30;48.10
26954;DHT22;14508;50.924;11.600;2023-04-03T16:04:32;7.10;48.70